This demonstration page uses our WeatherBlox Daily Observations layout. Learn more.

39.29038, -76.61219

Hourly Observations for December 18, 2017

Temp ( °F °C ) Dew Point ( °F °C ) Humidity (%) Winds ( mph kmh ) Pressure ( in mb ) Visibility ( mi km ) Precip ( " mm )
12:54 am 00:54 undefined 42 5.6 32 0 68 68 undefined N/A 30.15 1021 N/A 0 0
1:54 am 01:54 undefined 42 5.6 32 0 68 68 undefined N/A 30.12 1020 N/A 0 0
2:54 am 02:54 undefined 42 5.6 33 0.6 71 71 undefined N/A 30.12 1020 N/A 0 0
3:54 am 03:54 undefined 42 5.6 33 0.6 71 71 undefined N/A 30.09 1019 N/A 0 0
4:54 am 04:54 undefined 42 5.6 33 0.6 71 71 undefined N/A 30.09 1019 N/A 0 0
5:54 am 05:54 undefined 42 5.6 33 0.6 71 71 undefined N/A 30.12 1020 N/A 0 0
6:54 am 06:54 undefined 41 5 32 0 70 70 undefined N/A 30.12 1020 N/A 0 0
7:54 am 07:54 undefined 40 4.4 33 0.6 77 77 undefined N/A 30.09 1019 N/A 0 0
8:54 am 08:54 undefined 45 7.2 34 1.1 66 66 undefined N/A 30.15 1021 N/A 0 0
9:54 am 09:54 undefined 47 8.3 34 1.1 61 61 undefined N/A 30.15 1021 N/A 0 0
10:54 am 10:54 undefined 49 9.4 34 1.1 56 56 undefined N/A 30.12 1020 N/A 0 0
11:54 am 11:54 undefined 52 11.1 37 2.8 57 57 undefined N/A 30.06 1018 N/A 0 0
12:54 pm 12:54 undefined 55 12.8 36 2.2 49 49 undefined N/A 30.03 1017 N/A 0 0
1:54 pm 13:54 undefined 55 12.8 37 2.8 51 51 undefined N/A 30 1016 N/A 0 0
2:54 pm 14:54 undefined 54 12.2 37 2.8 53 53 undefined N/A 29.97 1015 N/A 0 0
3:54 pm 15:54 undefined 51 10.6 37 2.8 59 59 undefined N/A 29.97 1015 N/A 0 0
4:54 pm 16:54 undefined 49 9.4 37 2.8 64 64 undefined N/A 29.97 1015 N/A 0 0
5:54 pm 17:54 undefined 50 10 37 2.8 61 61 undefined N/A 30 1016 N/A 0 0
6:54 pm 18:54 undefined 50 10 36 2.2 59 59 undefined N/A 29.97 1015 N/A 0 0
7:54 pm 19:54 undefined 50 10 36 2.2 59 59 undefined N/A 30 1016 N/A 0 0
8:54 pm 20:54 undefined 50 10 38 3.3 63 63 undefined N/A 30 1016 N/A 0 0
9:54 pm 21:54 undefined 50 10 36 2.2 59 59 undefined N/A 30 1016 N/A 0 0
10:54 pm 22:54 undefined 49 9.4 38 3.3 66 66 undefined N/A 30 1016 N/A 0 0
11:54 pm 23:54 undefined 49 9.4 37 2.8 64 64 undefined N/A 29.97 1015 N/A 0 0

Powered by AerisWeather